createdAt,value
2018-01-20T00:00:55.653Z,92.90
2018-01-20T00:01:59.760Z,92.90
2018-01-20T00:03:03.994Z,92.90
2018-01-20T00:04:08.748Z,92.90
2018-01-20T00:05:13.076Z,92.90
2018-01-20T00:06:17.008Z,93.00
2018-01-20T00:07:21.880Z,92.90
2018-01-20T00:08:25.979Z,92.90
2018-01-20T00:09:39.446Z,92.90
2018-01-20T00:11:57.210Z,92.70
2018-01-20T00:13:01.232Z,92.70
2018-01-20T00:14:05.329Z,92.70
2018-01-20T00:15:09.349Z,92.70
2018-01-20T00:16:13.412Z,92.80
2018-01-20T00:17:17.453Z,92.90
2018-01-20T00:18:21.606Z,92.80
2018-01-20T00:19:25.785Z,92.90
2018-01-20T00:20:30.767Z,93.00
2018-01-20T00:21:34.913Z,93.00
2018-01-20T00:22:39.801Z,92.90
2018-01-20T00:23:43.819Z,92.90
2018-01-20T00:24:51.983Z,92.90
2018-01-20T00:26:00.149Z,92.90
2018-01-20T00:27:04.082Z,92.90
2018-01-20T00:28:08.142Z,93.00
2018-01-20T00:29:12.835Z,93.10
2018-01-20T00:30:17.235Z,93.10
2018-01-20T00:31:21.769Z,93.10
2018-01-20T00:32:26.452Z,93.20
2018-01-20T00:33:30.359Z,93.20
2018-01-20T00:34:34.290Z,93.20
2018-01-20T00:35:38.535Z,93.30
2018-01-20T00:36:42.471Z,93.30
2018-01-20T00:37:46.465Z,93.20
2018-01-20T00:38:50.322Z,93.20
2018-01-20T00:39:54.257Z,93.20
2018-01-20T00:40:58.696Z,93.20
2018-01-20T00:42:02.644Z,93.20
2018-01-20T00:43:06.762Z,93.20
2018-01-20T00:44:10.663Z,93.20
2018-01-20T00:45:14.588Z,93.20
2018-01-20T00:46:19.257Z,93.30
2018-01-20T00:47:23.594Z,93.30
2018-01-20T00:48:27.576Z,93.40
2018-01-20T00:49:31.601Z,93.40
2018-01-20T00:50:35.603Z,93.40
2018-01-20T00:51:40.258Z,93.40
2018-01-20T00:52:44.538Z,93.40
2018-01-20T00:53:49.337Z,93.40
2018-01-20T00:54:53.211Z,93.40
2018-01-20T00:55:57.158Z,93.40
2018-01-20T00:57:01.874Z,93.50
2018-01-20T00:58:06.744Z,93.50
2018-01-20T00:59:11.118Z,93.50
2018-01-20T01:00:15.021Z,93.50
2018-01-20T01:01:18.963Z,93.50
2018-01-20T01:02:22.964Z,93.50
2018-01-20T01:03:26.915Z,93.50
2018-01-20T01:04:31.412Z,93.40
2018-01-20T01:05:35.809Z,93.40
2018-01-20T01:06:40.470Z,93.40
2018-01-20T01:07:44.477Z,93.40
2018-01-20T01:08:48.393Z,93.30
2018-01-20T01:09:52.488Z,93.40
2018-01-20T01:10:56.896Z,93.40
2018-01-20T01:12:00.921Z,93.40
2018-01-20T01:13:06.437Z,93.50
2018-01-20T01:14:10.510Z,93.50
2018-01-20T01:15:14.521Z,93.50
2018-01-20T01:16:18.449Z,93.50
2018-01-20T01:17:22.807Z,93.50
2018-01-20T01:18:26.673Z,93.60
2018-01-20T01:19:31.337Z,93.70
2018-01-20T01:20:35.309Z,93.70
2018-01-20T01:21:39.169Z,93.60
2018-01-20T01:22:43.143Z,93.60
2018-01-20T01:23:47.172Z,93.70
2018-01-20T01:24:51.251Z,93.60
2018-01-20T01:25:55.495Z,93.70
2018-01-20T01:27:00.262Z,93.80
2018-01-20T01:28:04.283Z,93.70
2018-01-20T01:29:10.469Z,93.80
2018-01-20T01:30:15.159Z,93.90
2018-01-20T01:31:48.306Z,93.80
2018-01-20T01:32:52.530Z,93.90
2018-01-20T01:33:56.538Z,94.00
2018-01-20T01:35:00.760Z,94.00
2018-01-20T01:36:05.759Z,93.90
2018-01-20T01:37:09.760Z,93.90
2018-01-20T01:38:13.751Z,93.80
2018-01-20T01:39:17.716Z,93.80
2018-01-20T01:40:21.662Z,93.70
2018-01-20T01:41:25.521Z,93.70
2018-01-20T01:42:29.510Z,93.70
2018-01-20T01:43:33.621Z,93.50
2018-01-20T01:44:37.637Z,93.50
2018-01-20T01:45:41.783Z,93.30
2018-01-20T01:46:46.630Z,93.30
2018-01-20T01:47:51.964Z,93.30
2018-01-20T01:48:55.889Z,93.30
2018-01-20T01:49:59.883Z,93.30
2018-01-20T01:51:03.868Z,93.30
2018-01-20T01:52:07.901Z,93.60
2018-01-20T01:53:11.889Z,93.20
2018-01-20T01:54:15.864Z,93.20
2018-01-20T01:55:19.963Z,93.20
2018-01-20T01:56:24.015Z,93.30
2018-01-20T01:57:27.992Z,93.40
2018-01-20T01:58:31.880Z,93.40
2018-01-20T01:59:35.849Z,93.40
2018-01-20T02:00:40.595Z,93.40
2018-01-20T02:01:44.457Z,93.40
2018-01-20T02:02:49.223Z,93.30
2018-01-20T02:03:53.298Z,93.30
2018-01-20T02:04:57.198Z,93.40
2018-01-20T02:06:01.542Z,93.50
2018-01-20T02:07:05.407Z,93.50
2018-01-20T02:08:09.328Z,93.60
2018-01-20T02:09:13.258Z,93.70
2018-01-20T02:10:18.006Z,93.80
2018-01-20T02:11:22.031Z,93.80
2018-01-20T02:12:26.498Z,93.70
2018-01-20T02:13:31.121Z,93.70
2018-01-20T02:14:36.267Z,93.80
2018-01-20T02:15:40.356Z,93.80
2018-01-20T02:16:45.094Z,93.80
2018-01-20T02:17:49.106Z,93.90
2018-01-20T02:18:53.336Z,93.70
2018-01-20T02:19:57.434Z,93.70
2018-01-20T02:21:01.384Z,93.70
2018-01-20T02:22:05.301Z,93.70
2018-01-20T02:23:09.229Z,93.60
2018-01-20T02:24:13.145Z,93.70
2018-01-20T02:25:17.137Z,93.70
2018-01-20T02:26:21.028Z,93.70
2018-01-20T02:27:24.893Z,93.80
2018-01-20T02:28:28.864Z,93.90
2018-01-20T02:29:33.492Z,93.90
2018-01-20T02:30:37.881Z,93.90
2018-01-20T02:31:41.797Z,94.00
2018-01-20T02:32:45.719Z,94.00
2018-01-20T02:33:49.669Z,94.00
2018-01-20T02:34:53.810Z,94.10
2018-01-20T02:35:57.861Z,94.00
2018-01-20T02:37:02.256Z,94.00
2018-01-20T02:38:06.105Z,94.10
2018-01-20T02:39:10.093Z,94.10
2018-01-20T02:40:14.785Z,94.20
2018-01-20T02:41:19.165Z,94.20
2018-01-20T02:42:23.051Z,94.20
2018-01-20T02:43:26.940Z,94.20
2018-01-20T02:44:30.922Z,94.20
2018-01-20T02:45:34.812Z,94.20
2018-01-20T02:46:38.820Z,94.20
2018-01-20T02:47:42.740Z,94.10
2018-01-20T02:48:47.074Z,94.10
2018-01-20T02:49:51.048Z,94.10
2018-01-20T02:50:55.059Z,94.10
2018-01-20T02:51:59.084Z,94.10
2018-01-20T02:53:03.055Z,94.20
2018-01-20T02:54:06.900Z,94.30
2018-01-20T02:55:11.894Z,94.40
2018-01-20T02:56:15.825Z,94.40
2018-01-20T02:57:20.761Z,94.50
2018-01-20T02:58:24.635Z,94.40
2018-01-20T02:59:29.313Z,94.30
2018-01-20T03:00:33.206Z,94.40
2018-01-20T03:01:37.124Z,94.40
2018-01-20T03:02:41.000Z,94.50
2018-01-20T03:03:44.885Z,94.40
2018-01-20T03:04:48.806Z,94.50
2018-01-20T03:05:52.728Z,94.40
2018-01-20T03:06:57.002Z,94.20
2018-01-20T03:08:01.182Z,94.30
2018-01-20T03:09:05.414Z,94.30
2018-01-20T03:10:09.324Z,94.40
2018-01-20T03:11:13.191Z,94.40
2018-01-20T03:12:17.197Z,94.40
2018-01-20T03:13:21.453Z,94.40
2018-01-20T03:14:26.233Z,94.60
2018-01-20T03:15:30.181Z,94.60
2018-01-20T03:16:34.862Z,94.60
2018-01-20T03:17:38.758Z,94.60
2018-01-20T03:18:42.823Z,94.70
2018-01-20T03:19:46.714Z,94.70
2018-01-20T03:20:50.627Z,94.70
2018-01-20T03:21:54.613Z,94.60
2018-01-20T03:22:58.456Z,94.60
2018-01-20T03:24:02.437Z,94.70
2018-01-20T03:25:06.736Z,94.70
2018-01-20T03:26:10.551Z,94.60
2018-01-20T03:27:14.444Z,94.50
2018-01-20T03:28:18.316Z,94.50
2018-01-20T03:29:22.375Z,94.40
2018-01-20T03:30:27.123Z,94.50
2018-01-20T03:31:31.314Z,94.50
2018-01-20T03:32:35.369Z,94.50
2018-01-20T03:33:39.258Z,94.50
2018-01-20T03:34:43.121Z,94.40
2018-01-20T03:35:47.071Z,94.40
2018-01-20T03:36:51.252Z,94.40
2018-01-20T03:37:55.121Z,94.40
2018-01-20T03:38:59.077Z,94.40
2018-01-20T03:40:03.155Z,94.60
2018-01-20T03:41:07.121Z,94.40
2018-01-20T03:42:10.971Z,94.50
2018-01-20T03:43:15.280Z,94.60
2018-01-20T03:44:19.116Z,94.60
2018-01-20T03:45:23.044Z,94.70
2018-01-20T03:46:26.916Z,94.70
2018-01-20T03:47:30.774Z,94.70
2018-01-20T03:48:34.846Z,94.80
2018-01-20T03:49:39.157Z,94.80
2018-01-20T03:50:43.170Z,94.80
2018-01-20T03:51:48.701Z,94.90
2018-01-20T03:52:52.560Z,94.90
2018-01-20T03:53:56.786Z,95.00
2018-01-20T03:55:00.696Z,94.90
2018-01-20T03:56:04.581Z,94.90
2018-01-20T03:57:08.519Z,94.90
2018-01-20T03:58:13.223Z,95.10
2018-01-20T03:59:17.097Z,95.10
2018-01-20T04:00:21.501Z,95.00
2018-01-20T04:01:26.694Z,95.10
2018-01-20T04:02:30.581Z,95.20
2018-01-20T04:03:34.565Z,95.30
2018-01-20T04:04:39.444Z,95.30
2018-01-20T04:05:43.547Z,95.20
2018-01-20T04:06:47.924Z,95.10
2018-01-20T04:07:52.404Z,95.10
2018-01-20T04:08:56.551Z,95.10
2018-01-20T04:10:00.668Z,95.20
2018-01-20T04:11:04.765Z,95.20
2018-01-20T04:12:08.987Z,95.20
2018-01-20T04:13:13.142Z,95.10
2018-01-20T04:14:18.100Z,95.10
2018-01-20T04:15:22.297Z,95.10
2018-01-20T04:16:26.605Z,95.10
2018-01-20T04:17:30.712Z,95.20
2018-01-20T04:18:34.851Z,95.10
2018-01-20T04:19:39.285Z,95.20
2018-01-20T04:20:44.188Z,95.20
2018-01-20T04:21:49.088Z,95.20
2018-01-20T04:22:53.290Z,95.20
2018-01-20T04:23:57.473Z,95.30
2018-01-20T04:25:01.609Z,95.30
2018-01-20T04:26:05.891Z,95.10
2018-01-20T04:27:09.827Z,95.10
2018-01-20T04:28:13.752Z,95.10
2018-01-20T04:29:17.856Z,95.10
2018-01-20T04:30:21.857Z,95.10
2018-01-20T04:31:25.780Z,95.10
2018-01-20T04:32:29.723Z,95.10
2018-01-20T04:33:33.711Z,95.10
2018-01-20T04:34:37.801Z,95.10
2018-01-20T04:35:41.918Z,95.40
2018-01-20T04:36:45.903Z,95.10
2018-01-20T04:37:50.721Z,95.10
2018-01-20T04:38:54.762Z,95.30
2018-01-20T04:39:59.590Z,95.10
2018-01-20T04:41:04.283Z,95.10
2018-01-20T04:42:08.180Z,95.10
2018-01-20T04:43:12.185Z,95.20
2018-01-20T04:44:17.351Z,95.50
2018-01-20T04:45:21.542Z,95.30
2018-01-20T04:46:25.700Z,95.30
2018-01-20T04:47:29.881Z,95.30
2018-01-20T04:48:33.969Z,95.30
2018-01-20T04:49:37.964Z,95.30
2018-01-20T04:50:41.947Z,95.40
2018-01-20T04:51:45.954Z,95.50
2018-01-20T04:52:49.944Z,95.50
2018-01-20T04:53:54.090Z,95.50
2018-01-20T04:54:58.187Z,95.40
2018-01-20T04:56:02.287Z,95.40
2018-01-20T04:57:06.388Z,95.30
2018-01-20T04:58:10.801Z,95.20
2018-01-20T04:59:15.009Z,95.30
2018-01-20T05:00:19.147Z,95.30
2018-01-20T05:01:24.124Z,95.40
2018-01-20T05:02:28.397Z,95.30
2018-01-20T05:03:32.568Z,95.30
2018-01-20T05:04:36.737Z,95.30
2018-01-20T05:05:40.909Z,95.30
2018-01-20T05:06:45.865Z,95.20
2018-01-20T05:07:50.021Z,95.30
2018-01-20T05:08:54.896Z,95.50
2018-01-20T05:09:58.999Z,95.20
2018-01-20T05:11:03.293Z,95.30
2018-01-20T05:12:07.436Z,95.30
2018-01-20T05:13:11.523Z,95.30
2018-01-20T05:14:15.675Z,95.30
2018-01-20T05:15:19.976Z,95.30
2018-01-20T05:16:24.884Z,95.30
2018-01-20T05:17:29.750Z,95.30
2018-01-20T05:18:33.941Z,95.30
2018-01-20T05:19:38.109Z,95.50
2018-01-20T05:20:42.475Z,95.50
2018-01-20T05:21:46.717Z,95.50
2018-01-20T05:22:50.882Z,95.50
2018-01-20T05:23:55.147Z,95.40
2018-01-20T05:24:59.547Z,95.30
2018-01-20T05:26:04.886Z,95.40
2018-01-20T05:27:09.890Z,95.50
2018-01-20T05:28:14.049Z,95.50
2018-01-20T05:29:18.174Z,95.50
2018-01-20T05:30:22.284Z,95.50
2018-01-20T05:31:26.450Z,95.40
2018-01-20T05:32:30.953Z,95.40
2018-01-20T05:33:35.050Z,95.40
2018-01-20T05:34:39.161Z,95.40
2018-01-20T05:35:43.270Z,95.30
2018-01-20T05:36:47.245Z,95.30
2018-01-20T05:37:52.299Z,95.60
2018-01-20T05:38:56.575Z,95.30
2018-01-20T05:40:01.320Z,95.30
2018-01-20T05:41:05.260Z,95.30
2018-01-20T05:42:09.535Z,95.30
2018-01-20T05:43:13.541Z,95.30
2018-01-20T05:44:17.460Z,95.40
2018-01-20T05:45:21.504Z,95.40
2018-01-20T05:46:25.504Z,95.40
2018-01-20T05:47:29.479Z,95.40
2018-01-20T05:48:33.653Z,95.40
2018-01-20T05:49:37.639Z,95.40
2018-01-20T05:50:41.586Z,95.20
2018-01-20T05:51:46.313Z,95.40
2018-01-20T05:52:51.015Z,95.30
2018-01-20T05:53:55.829Z,95.30
2018-01-20T05:54:59.857Z,95.30
2018-01-20T05:56:03.894Z,95.30
2018-01-20T05:57:07.835Z,95.20
2018-01-20T05:58:12.939Z,95.10
2018-01-20T05:59:17.106Z,95.10
2018-01-20T06:00:21.332Z,95.00
2018-01-20T06:01:25.459Z,95.00
2018-01-20T06:02:29.725Z,95.00
2018-01-20T06:03:33.807Z,95.00
2018-01-20T06:04:38.419Z,95.00
2018-01-20T06:05:42.653Z,95.00
2018-01-20T06:06:46.768Z,95.00
2018-01-20T06:07:51.357Z,94.90
2018-01-20T06:08:55.585Z,94.90
2018-01-20T06:09:59.717Z,94.80
2018-01-20T06:11:04.260Z,94.80
2018-01-20T06:12:08.458Z,94.80
2018-01-20T06:13:13.407Z,94.70
2018-01-20T06:14:17.552Z,94.70
2018-01-20T06:15:21.806Z,94.70
2018-01-20T06:16:25.913Z,94.70
2018-01-20T06:17:30.010Z,94.60
2018-01-20T06:18:34.075Z,94.60
2018-01-20T06:19:39.136Z,94.40
2018-01-20T06:20:43.341Z,94.40
2018-01-20T06:21:47.673Z,94.40
2018-01-20T06:22:51.779Z,94.40
2018-01-20T06:23:55.965Z,94.30
2018-01-20T06:25:00.124Z,94.20
2018-01-20T06:26:05.040Z,94.30
2018-01-20T06:27:09.212Z,94.30
2018-01-20T06:28:13.419Z,94.40
2018-01-20T06:29:17.652Z,94.30
2018-01-20T06:30:21.688Z,94.40
2018-01-20T06:31:25.763Z,94.40
2018-01-20T06:32:30.470Z,94.50
2018-01-20T06:33:35.206Z,94.40
2018-01-20T06:34:39.847Z,94.40
2018-01-20T06:35:43.830Z,94.40
2018-01-20T06:36:47.831Z,94.30
2018-01-20T06:37:51.993Z,94.40
2018-01-20T06:38:55.934Z,94.40
2018-01-20T06:40:00.802Z,94.30
2018-01-20T06:41:04.714Z,94.30
2018-01-20T06:42:08.875Z,94.30
2018-01-20T06:43:12.939Z,94.20
2018-01-20T06:44:17.684Z,94.20
2018-01-20T06:45:21.759Z,94.20
2018-01-20T06:46:26.541Z,94.20
2018-01-20T06:47:30.536Z,94.20
2018-01-20T06:48:34.539Z,94.20
2018-01-20T06:49:38.844Z,94.20
2018-01-20T06:50:43.177Z,94.20
2018-01-20T06:51:47.394Z,94.20
2018-01-20T06:52:52.903Z,94.40
2018-01-20T06:53:57.041Z,94.40
2018-01-20T06:55:01.256Z,94.70
2018-01-20T06:56:05.430Z,94.40
2018-01-20T06:57:09.629Z,94.40
2018-01-20T06:58:13.978Z,94.30
2018-01-20T06:59:18.693Z,94.30
2018-01-20T07:00:22.858Z,94.30
2018-01-20T07:01:27.017Z,94.30
2018-01-20T07:02:31.271Z,94.30
2018-01-20T07:03:35.409Z,94.10
2018-01-20T07:04:39.685Z,94.10
2018-01-20T07:05:44.180Z,94.20
2018-01-20T07:06:48.372Z,94.10
2018-01-20T07:07:52.322Z,94.10
2018-01-20T07:08:56.437Z,94.10
2018-01-20T07:10:00.413Z,94.00
2018-01-20T07:11:05.147Z,93.90
2018-01-20T07:12:09.154Z,93.90
2018-01-20T07:13:13.140Z,94.10
2018-01-20T07:14:18.132Z,94.10
2018-01-20T07:15:22.156Z,94.10
2018-01-20T07:16:27.096Z,94.00
2018-01-20T07:17:31.415Z,94.00
2018-01-20T07:18:35.596Z,94.00
2018-01-20T07:19:40.641Z,94.10
2018-01-20T07:20:44.740Z,94.10
2018-01-20T07:21:48.911Z,94.00
2018-01-20T07:22:53.909Z,93.80
2018-01-20T07:23:58.117Z,93.80
2018-01-20T07:25:02.684Z,93.70
2018-01-20T07:26:06.818Z,93.70
2018-01-20T07:27:10.753Z,93.70
2018-01-20T07:28:15.551Z,93.70
2018-01-20T07:29:19.481Z,93.70
2018-01-20T07:30:24.291Z,93.70
2018-01-20T07:31:29.405Z,93.60
2018-01-20T07:32:33.306Z,93.60
2018-01-20T07:33:37.241Z,93.60
2018-01-20T07:34:41.249Z,93.60
2018-01-20T07:35:45.530Z,93.70
2018-01-20T07:36:49.635Z,93.70
2018-01-20T07:37:54.211Z,93.70
2018-01-20T07:38:58.334Z,93.70
2018-01-20T07:40:07.398Z,93.70
2018-01-20T07:41:11.585Z,93.70
2018-01-20T07:42:15.800Z,93.70
2018-01-20T07:43:19.985Z,93.70
2018-01-20T07:44:24.133Z,93.60
2018-01-20T07:45:28.279Z,93.50
2018-01-20T07:46:33.235Z,93.50
2018-01-20T07:49:43.817Z,93.50
2018-01-20T07:50:48.034Z,93.40
2018-01-20T07:51:52.204Z,93.70
2018-01-20T07:52:56.546Z,93.40
2018-01-20T07:54:00.803Z,93.50
2018-01-20T07:55:05.745Z,93.60
2018-01-20T07:56:09.874Z,93.60
2018-01-20T07:57:14.534Z,93.60
2018-01-20T07:58:19.555Z,93.60
2018-01-20T07:59:23.788Z,93.60
2018-01-20T08:00:27.879Z,93.70
2018-01-20T08:01:32.027Z,93.70
2018-01-20T08:02:36.668Z,93.70
2018-01-20T08:03:40.785Z,93.70
2018-01-20T08:04:45.698Z,93.60
2018-01-20T08:05:49.821Z,93.60
2018-01-20T08:06:53.835Z,93.70
2018-01-20T08:07:57.893Z,93.70
2018-01-20T08:09:01.941Z,93.60
2018-01-20T08:10:05.911Z,93.60
2018-01-20T08:11:10.724Z,93.70
2018-01-20T08:12:15.484Z,93.70
2018-01-20T08:13:19.699Z,93.70
2018-01-20T08:14:23.764Z,93.70
2018-01-20T08:15:27.752Z,94.10
2018-01-20T08:16:31.749Z,93.70
2018-01-20T08:17:36.600Z,93.80
2018-01-20T08:18:40.628Z,93.70
2018-01-20T08:19:44.667Z,93.80
2018-01-20T08:20:49.376Z,93.70
2018-01-20T08:21:53.432Z,93.70
2018-01-20T08:22:57.447Z,93.60
2018-01-20T08:24:01.460Z,93.70
2018-01-20T08:25:05.608Z,93.60
2018-01-20T08:26:09.814Z,93.60
2018-01-20T08:27:14.004Z,93.60
2018-01-20T08:28:19.144Z,93.60
2018-01-20T08:29:23.316Z,93.60
2018-01-20T08:30:28.040Z,93.60
2018-01-20T08:31:33.133Z,93.50
2018-01-20T08:32:37.352Z,93.50
2018-01-20T08:33:41.572Z,93.50
2018-01-20T08:34:45.777Z,93.40
2018-01-20T08:35:49.804Z,93.40
2018-01-20T08:36:53.790Z,93.40
2018-01-20T08:37:58.839Z,93.40
2018-01-20T08:39:02.997Z,93.40
2018-01-20T08:40:07.032Z,93.40
2018-01-20T08:41:11.050Z,93.30
2018-01-20T08:42:15.076Z,93.40
2018-01-20T08:43:19.012Z,93.40
2018-01-20T08:44:24.270Z,93.40
2018-01-20T08:45:28.393Z,93.30
2018-01-20T08:46:32.532Z,93.30
2018-01-20T08:47:36.633Z,93.30
2018-01-20T08:48:40.735Z,93.20
2018-01-20T08:49:44.941Z,93.10
2018-01-20T08:50:49.176Z,93.00
2018-01-20T08:51:53.313Z,93.10
2018-01-20T08:52:57.505Z,93.00
2018-01-20T08:54:01.632Z,93.00
2018-01-20T08:55:05.856Z,92.90
2018-01-20T08:56:10.924Z,92.70
2018-01-20T08:57:14.971Z,92.70
2018-01-20T08:58:18.899Z,93.00
2018-01-20T08:59:23.728Z,92.70
2018-01-20T09:00:28.463Z,92.60
2018-01-20T09:01:33.009Z,92.50
2018-01-20T09:02:37.541Z,92.60
2018-01-20T09:03:41.747Z,92.60
2018-01-20T09:04:45.849Z,93.40
2018-01-20T09:05:50.792Z,92.80
2018-01-20T09:06:55.757Z,92.90
2018-01-20T09:07:59.796Z,92.80
2018-01-20T09:09:03.941Z,92.90
2018-01-20T09:10:07.984Z,92.90
2018-01-20T09:11:11.979Z,92.70
2018-01-20T09:12:16.073Z,92.70
2018-01-20T09:13:21.255Z,92.60
2018-01-20T09:14:27.036Z,92.50
2018-01-20T09:15:31.248Z,92.50
2018-01-20T09:16:35.390Z,92.40
2018-01-20T09:17:40.516Z,92.10
2018-01-20T09:18:45.624Z,91.80
2018-01-20T09:19:49.813Z,91.80
2018-01-20T09:20:56.948Z,91.80
2018-01-20T09:22:01.065Z,91.80
2018-01-20T09:23:05.251Z,91.70
2018-01-20T09:24:09.381Z,91.70
2018-01-20T09:25:14.211Z,91.50
2018-01-20T09:26:18.557Z,91.50
2018-01-20T09:27:22.590Z,91.50
2018-01-20T09:28:26.669Z,91.30
2018-01-20T09:29:31.406Z,91.20
2018-01-20T09:30:35.411Z,91.20
2018-01-20T09:31:39.395Z,91.10
2018-01-20T09:32:43.843Z,91.10
2018-01-20T09:33:47.859Z,91.20
2018-01-20T09:34:52.135Z,91.20
2018-01-20T09:35:56.130Z,91.20
2018-01-20T09:37:00.288Z,91.20
2018-01-20T09:38:04.400Z,91.30
2018-01-20T09:39:09.929Z,91.60
2018-01-20T09:40:14.173Z,91.40
2018-01-20T09:41:18.519Z,91.30
2018-01-20T09:42:22.732Z,91.30
2018-01-20T09:43:27.178Z,91.40
2018-01-20T09:44:32.448Z,91.40
2018-01-20T09:45:36.820Z,91.40
2018-01-20T09:46:41.119Z,91.30
2018-01-20T09:47:46.080Z,91.10
2018-01-20T09:48:50.391Z,91.10
2018-01-20T09:49:54.540Z,91.20
2018-01-20T09:51:04.712Z,91.20
2018-01-20T09:52:09.034Z,91.20
2018-01-20T09:53:13.172Z,91.10
2018-01-20T09:54:17.360Z,91.20
2018-01-20T09:55:21.574Z,91.20
2018-01-20T09:56:25.737Z,91.30
2018-01-20T09:57:29.945Z,91.50
2018-01-20T09:58:34.423Z,91.20
2018-01-20T09:59:39.450Z,91.10
2018-01-20T10:00:44.409Z,91.00
2018-01-20T10:01:48.464Z,91.00
2018-01-20T10:02:53.117Z,90.90
2018-01-20T10:03:57.180Z,90.90
2018-01-20T10:05:01.192Z,90.90
2018-01-20T10:06:05.256Z,90.70
2018-01-20T10:07:09.233Z,90.70
2018-01-20T10:08:13.180Z,90.70
2018-01-20T10:09:17.729Z,90.60
2018-01-20T10:10:21.751Z,90.60
2018-01-20T10:11:25.690Z,90.50
2018-01-20T10:12:29.634Z,90.40
2018-01-20T10:13:33.577Z,90.30
2018-01-20T10:14:37.997Z,90.10
2018-01-20T10:15:42.833Z,90.00
2018-01-20T10:16:47.728Z,89.80
2018-01-20T10:17:53.322Z,89.80
2018-01-20T10:18:57.668Z,90.00
2018-01-20T10:20:03.635Z,90.00
2018-01-20T10:21:09.051Z,90.00
2018-01-20T10:22:13.257Z,90.00
2018-01-20T10:23:17.394Z,89.70
2018-01-20T10:24:23.108Z,89.60
2018-01-20T10:25:28.134Z,89.90
2018-01-20T10:26:32.494Z,89.80
2018-01-20T10:27:37.016Z,89.70
2018-01-20T10:28:41.270Z,89.90
2018-01-20T10:29:46.129Z,89.90
2018-01-20T10:30:50.360Z,90.00
2018-01-20T10:31:54.270Z,89.80
2018-01-20T10:32:58.504Z,89.90
2018-01-20T10:34:02.411Z,89.90
2018-01-20T10:35:06.652Z,90.00
2018-01-20T10:36:10.574Z,90.00
2018-01-20T10:37:16.670Z,90.00
2018-01-20T10:38:20.665Z,90.00
2018-01-20T10:39:24.604Z,89.80
2018-01-20T10:40:28.581Z,90.00
2018-01-20T10:41:32.811Z,90.00
2018-01-20T10:42:36.776Z,90.00
2018-01-20T10:43:42.146Z,90.00
2018-01-20T10:44:46.111Z,90.00
2018-01-20T10:45:50.092Z,90.10
2018-01-20T10:46:54.124Z,90.20
2018-01-20T10:47:58.017Z,90.20
2018-01-20T10:49:01.943Z,90.20
2018-01-20T10:50:06.056Z,90.30
2018-01-20T10:51:10.018Z,90.20
2018-01-20T10:52:14.321Z,90.30
2018-01-20T10:53:18.237Z,90.30
2018-01-20T10:54:22.402Z,90.40
2018-01-20T10:55:26.904Z,90.50
2018-01-20T10:56:32.350Z,90.80
2018-01-20T10:57:36.487Z,90.80
2018-01-20T10:58:40.650Z,90.80
2018-01-20T10:59:44.754Z,91.00
2018-01-20T11:00:49.727Z,90.90
2018-01-20T11:01:54.272Z,91.00
2018-01-20T11:05:05.231Z,91.20
2018-01-20T11:06:09.209Z,91.60
2018-01-20T11:07:13.105Z,91.70
2018-01-20T11:08:17.212Z,91.80
2018-01-20T11:10:41.633Z,92.10
2018-01-20T11:11:46.389Z,92.20
2018-01-20T11:12:50.423Z,92.20
2018-01-20T11:13:55.056Z,92.30
2018-01-20T11:14:58.951Z,92.70
2018-01-20T11:16:02.966Z,93.10
2018-01-20T11:17:09.253Z,93.30
2018-01-20T11:18:13.251Z,93.30
2018-01-20T11:19:17.265Z,93.20
2018-01-20T11:20:21.311Z,93.40
2018-01-20T11:21:25.372Z,93.50
2018-01-20T11:22:29.321Z,93.30
2018-01-20T11:23:35.998Z,93.70
2018-01-20T11:24:40.271Z,94.00
2018-01-20T11:25:44.512Z,94.00
2018-01-20T11:26:48.745Z,94.00
2018-01-20T11:27:53.487Z,94.30
2018-01-20T11:28:57.754Z,94.20
2018-01-20T11:30:01.890Z,94.20
2018-01-20T11:31:06.447Z,94.20
2018-01-20T11:32:11.347Z,94.40
2018-01-20T11:33:15.559Z,94.40
2018-01-20T11:34:19.903Z,94.30
2018-01-20T11:35:24.033Z,94.40
2018-01-20T11:36:28.140Z,94.20
2018-01-20T11:37:32.642Z,94.50
2018-01-20T11:38:36.914Z,94.80
2018-01-20T11:39:40.879Z,94.90
2018-01-20T11:40:44.760Z,95.20
2018-01-20T11:41:48.698Z,95.20
2018-01-20T11:42:53.658Z,95.20
2018-01-20T11:43:57.556Z,95.10
2018-01-20T11:45:01.486Z,95.10
2018-01-20T11:46:05.464Z,95.00
2018-01-20T11:47:09.636Z,94.80
2018-01-20T11:48:14.126Z,94.90
2018-01-20T11:49:20.045Z,95.20
2018-01-20T11:50:24.790Z,95.10
2018-01-20T11:51:29.615Z,94.90
2018-01-20T11:52:34.378Z,94.90
2018-01-20T11:53:38.430Z,94.90
2018-01-20T11:54:43.212Z,95.50
2018-01-20T11:55:47.590Z,95.50
2018-01-20T11:56:51.885Z,95.60
2018-01-20T11:57:55.962Z,95.80
2018-01-20T11:59:01.386Z,95.70
2018-01-20T12:00:06.261Z,95.90
2018-01-20T12:01:10.443Z,95.90
2018-01-20T12:02:14.663Z,96.00
2018-01-20T12:03:19.284Z,95.90
2018-01-20T12:04:23.248Z,95.90
2018-01-20T12:05:28.063Z,96.40
2018-01-20T12:06:32.782Z,96.50
2018-01-20T12:07:37.774Z,96.50
2018-01-20T12:08:41.624Z,96.50
2018-01-20T12:09:46.429Z,96.60
2018-01-20T12:10:50.698Z,96.80
2018-01-20T12:11:54.746Z,96.60
2018-01-20T12:12:58.768Z,96.60
2018-01-20T12:14:03.694Z,96.80
2018-01-20T12:15:08.842Z,96.80
2018-01-20T12:16:12.877Z,96.90
2018-01-20T12:17:17.493Z,96.50
2018-01-20T12:18:21.635Z,96.50
2018-01-20T12:19:25.821Z,96.50
2018-01-20T12:20:29.835Z,96.40
2018-01-20T12:21:34.213Z,96.30
2018-01-20T12:22:38.420Z,96.20
2018-01-20T12:23:42.523Z,96.20
2018-01-20T12:24:46.917Z,96.30
2018-01-20T12:25:51.751Z,96.00
2018-01-20T12:26:56.069Z,96.00
2018-01-20T12:28:00.129Z,95.80
2018-01-20T12:29:04.404Z,96.00
2018-01-20T12:30:08.728Z,95.90
2018-01-20T12:31:13.005Z,96.00
2018-01-20T12:32:17.229Z,96.00
2018-01-20T12:33:21.765Z,96.10
2018-01-20T12:34:25.983Z,96.30
2018-01-20T12:35:31.002Z,96.20
2018-01-20T12:36:36.062Z,96.00
2018-01-20T12:37:41.042Z,95.90
2018-01-20T12:38:45.276Z,95.90
2018-01-20T12:39:49.838Z,95.90
2018-01-20T12:40:54.280Z,96.10
2018-01-20T12:41:59.243Z,96.10
2018-01-20T12:43:03.498Z,96.10
2018-01-20T12:44:07.809Z,96.40
2018-01-20T12:45:12.876Z,96.60
2018-01-20T12:46:17.457Z,96.60
2018-01-20T12:47:22.502Z,96.40
2018-01-20T12:48:26.910Z,96.40
2018-01-20T12:49:31.221Z,96.30
2018-01-20T12:50:35.524Z,96.50
2018-01-20T12:51:39.833Z,96.80
2018-01-20T12:52:46.353Z,97.00
2018-01-20T12:53:50.598Z,97.10
2018-01-20T12:54:54.961Z,97.10
2018-01-20T12:55:59.137Z,96.60
2018-01-20T12:57:03.361Z,96.20
2018-01-20T12:58:07.517Z,96.40
2018-01-20T12:59:11.667Z,96.70
2018-01-20T13:00:15.800Z,96.80
2018-01-20T13:01:20.869Z,97.00
2018-01-20T13:02:25.154Z,97.00
2018-01-20T13:03:29.285Z,97.10
2018-01-20T13:04:33.614Z,97.00
2018-01-20T13:05:38.062Z,96.90
2018-01-20T13:06:43.128Z,96.50
2018-01-20T13:07:47.458Z,96.50
2018-01-20T13:08:51.511Z,96.70
2018-01-20T13:09:55.783Z,96.70
2018-01-20T13:11:00.110Z,96.70
2018-01-20T13:12:04.924Z,96.80
2018-01-20T13:13:09.672Z,97.10
2018-01-20T13:14:13.726Z,97.10
2018-01-20T13:15:17.847Z,97.60
2018-01-20T13:16:22.588Z,97.20
2018-01-20T13:17:26.647Z,97.20
2018-01-20T13:18:31.656Z,97.20
2018-01-20T13:19:35.946Z,97.20
2018-01-20T13:20:40.076Z,97.10
2018-01-20T13:21:44.236Z,97.10
2018-01-20T13:22:48.379Z,97.20
2018-01-20T13:23:52.611Z,97.30
2018-01-20T13:24:56.689Z,97.20
2018-01-20T13:26:01.039Z,97.10
2018-01-20T13:27:05.123Z,97.10
2018-01-20T13:28:09.265Z,97.00
2018-01-20T13:29:14.173Z,97.10
2018-01-20T13:30:18.109Z,97.10
2018-01-20T13:31:22.161Z,97.10
2018-01-20T13:32:26.210Z,97.20
2018-01-20T13:33:30.295Z,97.20
2018-01-20T13:34:34.423Z,97.30
2018-01-20T13:35:38.515Z,97.40
2018-01-20T13:36:42.587Z,97.40
2018-01-20T13:37:46.602Z,97.70
2018-01-20T13:38:50.593Z,97.70
2018-01-20T13:39:54.839Z,97.60
2018-01-20T13:40:58.816Z,97.70
2018-01-20T13:42:04.396Z,97.70
2018-01-20T13:43:09.560Z,97.90
2018-01-20T13:44:14.510Z,97.90
2018-01-20T13:45:18.760Z,97.90
2018-01-20T13:46:23.840Z,97.80
2018-01-20T13:47:28.358Z,97.80
2018-01-20T13:48:33.236Z,97.80
2018-01-20T13:49:37.393Z,97.80
2018-01-20T13:50:41.632Z,98.00
2018-01-20T13:51:46.564Z,98.60
2018-01-20T13:52:52.230Z,98.30
2018-01-20T13:53:56.454Z,98.30
2018-01-20T13:55:00.781Z,98.20
2018-01-20T13:56:05.739Z,98.20